sensor_id;sensor_type;location;lat;lon;timestamp;P1;durP1;ratioP1;P2;durP2;ratioP2
16480;SDS011;44634;54.110;12.138;2022-09-28T00:00:55;9.30;;;7.93;;
16480;SDS011;44634;54.110;12.138;2022-09-28T00:03:24;9.50;;;8.07;;
16480;SDS011;44634;54.110;12.138;2022-09-28T00:05:59;8.80;;;7.57;;
16480;SDS011;44634;54.110;12.138;2022-09-28T00:08:28;11.70;;;8.23;;
16480;SDS011;44634;54.110;12.138;2022-09-28T00:10:56;10.50;;;8.40;;
16480;SDS011;44634;54.110;12.138;2022-09-28T00:13:24;11.07;;;8.83;;
16480;SDS011;44634;54.110;12.138;2022-09-28T00:15:58;9.73;;;8.70;;
16480;SDS011;44634;54.110;12.138;2022-09-28T00:18:29;11.07;;;9.03;;
16480;SDS011;44634;54.110;12.138;2022-09-28T00:21:00;10.63;;;9.20;;
16480;SDS011;44634;54.110;12.138;2022-09-28T00:23:30;10.63;;;8.90;;
16480;SDS011;44634;54.110;12.138;2022-09-28T00:26:00;10.47;;;8.80;;
16480;SDS011;44634;54.110;12.138;2022-09-28T00:28:29;9.77;;;8.77;;
16480;SDS011;44634;54.110;12.138;2022-09-28T00:30:57;11.10;;;8.90;;
16480;SDS011;44634;54.110;12.138;2022-09-28T00:33:25;13.57;;;8.63;;
16480;SDS011;44634;54.110;12.138;2022-09-28T00:35:55;9.43;;;8.57;;
16480;SDS011;44634;54.110;12.138;2022-09-28T00:38:27;10.80;;;8.77;;
16480;SDS011;44634;54.110;12.138;2022-09-28T00:40:56;8.87;;;7.97;;
16480;SDS011;44634;54.110;12.138;2022-09-28T00:43:24;8.87;;;7.77;;
16480;SDS011;44634;54.110;12.138;2022-09-28T00:45:54;10.43;;;8.53;;
16480;SDS011;44634;54.110;12.138;2022-09-28T00:48:26;11.13;;;7.90;;
16480;SDS011;44634;54.110;12.138;2022-09-28T00:50:57;10.53;;;8.23;;
16480;SDS011;44634;54.110;12.138;2022-09-28T00:53:30;11.77;;;7.70;;
16480;SDS011;44634;54.110;12.138;2022-09-28T00:56:02;9.10;;;7.10;;
16480;SDS011;44634;54.110;12.138;2022-09-28T00:58:36;12.07;;;8.10;;
16480;SDS011;44634;54.110;12.138;2022-09-28T01:01:07;9.77;;;8.07;;
16480;SDS011;44634;54.110;12.138;2022-09-28T01:03:35;10.27;;;7.20;;
16480;SDS011;44634;54.110;12.138;2022-09-28T01:06:05;9.03;;;7.47;;
16480;SDS011;44634;54.110;12.138;2022-09-28T01:08:34;10.73;;;8.30;;
16480;SDS011;44634;54.110;12.138;2022-09-28T01:11:03;8.97;;;7.87;;
16480;SDS011;44634;54.110;12.138;2022-09-28T01:13:31;12.60;;;9.17;;
16480;SDS011;44634;54.110;12.138;2022-09-28T01:16:01;11.13;;;9.13;;
16480;SDS011;44634;54.110;12.138;2022-09-28T01:18:37;11.60;;;8.77;;
16480;SDS011;44634;54.110;12.138;2022-09-28T01:21:15;14.97;;;10.27;;
16480;SDS011;44634;54.110;12.138;2022-09-28T01:23:53;11.73;;;9.80;;
16480;SDS011;44634;54.110;12.138;2022-09-28T01:26:42;15.30;;;10.90;;
16480;SDS011;44634;54.110;12.138;2022-09-28T01:29:17;14.23;;;11.03;;
16480;SDS011;44634;54.110;12.138;2022-09-28T01:31:49;15.93;;;11.90;;
16480;SDS011;44634;54.110;12.138;2022-09-28T01:34:23;13.30;;;11.33;;
16480;SDS011;44634;54.110;12.138;2022-09-28T01:36:57;14.80;;;12.17;;
16480;SDS011;44634;54.110;12.138;2022-09-28T01:39:30;15.03;;;12.63;;
16480;SDS011;44634;54.110;12.138;2022-09-28T01:42:06;17.47;;;12.83;;
16480;SDS011;44634;54.110;12.138;2022-09-28T01:44:39;21.77;;;13.73;;
16480;SDS011;44634;54.110;12.138;2022-09-28T01:47:11;16.83;;;12.70;;
16480;SDS011;44634;54.110;12.138;2022-09-28T01:49:44;20.47;;;14.20;;
16480;SDS011;44634;54.110;12.138;2022-09-28T01:52:16;20.07;;;15.07;;
16480;SDS011;44634;54.110;12.138;2022-09-28T01:54:50;18.03;;;14.67;;
16480;SDS011;44634;54.110;12.138;2022-09-28T01:57:25;19.50;;;14.40;;
16480;SDS011;44634;54.110;12.138;2022-09-28T02:00:00;22.23;;;16.23;;
16480;SDS011;44634;54.110;12.138;2022-09-28T02:02:32;22.37;;;15.97;;
16480;SDS011;44634;54.110;12.138;2022-09-28T02:05:06;20.90;;;16.17;;
16480;SDS011;44634;54.110;12.138;2022-09-28T02:07:39;23.87;;;16.17;;
16480;SDS011;44634;54.110;12.138;2022-09-28T02:10:12;21.67;;;16.43;;
16480;SDS011;44634;54.110;12.138;2022-09-28T02:12:45;20.13;;;16.70;;
16480;SDS011;44634;54.110;12.138;2022-09-28T02:15:18;21.40;;;16.40;;
16480;SDS011;44634;54.110;12.138;2022-09-28T02:17:49;24.27;;;16.33;;
16480;SDS011;44634;54.110;12.138;2022-09-28T02:20:17;23.33;;;16.83;;
16480;SDS011;44634;54.110;12.138;2022-09-28T02:22:48;24.10;;;17.20;;
16480;SDS011;44634;54.110;12.138;2022-09-28T02:25:20;23.10;;;17.30;;
16480;SDS011;44634;54.110;12.138;2022-09-28T02:27:57;25.80;;;19.87;;
16480;SDS011;44634;54.110;12.138;2022-09-28T02:30:27;27.27;;;18.77;;
16480;SDS011;44634;54.110;12.138;2022-09-28T02:32:57;27.47;;;19.50;;
16480;SDS011;44634;54.110;12.138;2022-09-28T02:35:31;27.00;;;19.43;;
16480;SDS011;44634;54.110;12.138;2022-09-28T02:38:00;27.07;;;19.70;;
16480;SDS011;44634;54.110;12.138;2022-09-28T02:40:29;30.20;;;20.20;;
16480;SDS011;44634;54.110;12.138;2022-09-28T02:43:01;26.60;;;19.13;;
16480;SDS011;44634;54.110;12.138;2022-09-28T02:45:40;26.73;;;19.57;;
16480;SDS011;44634;54.110;12.138;2022-09-28T02:48:19;27.87;;;19.20;;
16480;SDS011;44634;54.110;12.138;2022-09-28T02:51:12;31.13;;;20.33;;
16480;SDS011;44634;54.110;12.138;2022-09-28T02:54:10;29.73;;;20.60;;
16480;SDS011;44634;54.110;12.138;2022-09-28T02:57:00;30.13;;;21.40;;
16480;SDS011;44634;54.110;12.138;2022-09-28T02:59:44;30.10;;;21.17;;
16480;SDS011;44634;54.110;12.138;2022-09-28T03:02:22;30.53;;;21.13;;
16480;SDS011;44634;54.110;12.138;2022-09-28T03:04:59;32.07;;;20.93;;
16480;SDS011;44634;54.110;12.138;2022-09-28T03:07:33;30.87;;;21.07;;
16480;SDS011;44634;54.110;12.138;2022-09-28T03:10:05;30.00;;;20.07;;
16480;SDS011;44634;54.110;12.138;2022-09-28T03:12:40;27.03;;;19.17;;
16480;SDS011;44634;54.110;12.138;2022-09-28T03:15:13;26.80;;;19.33;;
16480;SDS011;44634;54.110;12.138;2022-09-28T03:17:47;33.30;;;21.07;;
16480;SDS011;44634;54.110;12.138;2022-09-28T03:20:16;31.70;;;22.20;;
16480;SDS011;44634;54.110;12.138;2022-09-28T03:22:44;29.20;;;21.07;;
16480;SDS011;44634;54.110;12.138;2022-09-28T03:25:32;29.47;;;20.77;;
16480;SDS011;44634;54.110;12.138;2022-09-28T03:28:00;28.40;;;19.90;;
16480;SDS011;44634;54.110;12.138;2022-09-28T03:30:29;27.97;;;19.50;;
16480;SDS011;44634;54.110;12.138;2022-09-28T03:32:57;27.57;;;20.43;;
16480;SDS011;44634;54.110;12.138;2022-09-28T03:35:27;30.90;;;20.13;;
16480;SDS011;44634;54.110;12.138;2022-09-28T03:37:55;28.30;;;21.23;;
16480;SDS011;44634;54.110;12.138;2022-09-28T03:40:24;25.53;;;20.10;;
16480;SDS011;44634;54.110;12.138;2022-09-28T03:42:52;30.67;;;21.30;;
16480;SDS011;44634;54.110;12.138;2022-09-28T03:45:20;26.80;;;19.40;;
16480;SDS011;44634;54.110;12.138;2022-09-28T03:47:49;29.83;;;20.17;;
16480;SDS011;44634;54.110;12.138;2022-09-28T03:50:17;28.97;;;21.13;;
16480;SDS011;44634;54.110;12.138;2022-09-28T03:52:44;32.37;;;20.97;;
16480;SDS011;44634;54.110;12.138;2022-09-28T03:55:12;27.50;;;20.03;;
16480;SDS011;44634;54.110;12.138;2022-09-28T03:57:40;28.73;;;19.90;;
16480;SDS011;44634;54.110;12.138;2022-09-28T04:00:08;29.20;;;20.53;;
16480;SDS011;44634;54.110;12.138;2022-09-28T04:02:37;29.87;;;21.40;;
16480;SDS011;44634;54.110;12.138;2022-09-28T04:05:06;30.90;;;20.70;;
16480;SDS011;44634;54.110;12.138;2022-09-28T04:07:35;29.90;;;19.83;;
16480;SDS011;44634;54.110;12.138;2022-09-28T04:10:03;30.43;;;20.90;;
16480;SDS011;44634;54.110;12.138;2022-09-28T04:12:31;31.10;;;20.07;;
16480;SDS011;44634;54.110;12.138;2022-09-28T04:14:58;30.83;;;20.50;;
16480;SDS011;44634;54.110;12.138;2022-09-28T04:17:26;29.93;;;20.77;;
16480;SDS011;44634;54.110;12.138;2022-09-28T04:19:54;30.87;;;20.13;;
16480;SDS011;44634;54.110;12.138;2022-09-28T04:22:24;30.10;;;19.50;;
16480;SDS011;44634;54.110;12.138;2022-09-28T04:24:52;27.30;;;20.60;;
16480;SDS011;44634;54.110;12.138;2022-09-28T04:27:20;28.83;;;19.87;;
16480;SDS011;44634;54.110;12.138;2022-09-28T04:30:05;29.30;;;20.17;;
16480;SDS011;44634;54.110;12.138;2022-09-28T04:32:34;31.30;;;20.20;;
16480;SDS011;44634;54.110;12.138;2022-09-28T04:35:01;25.47;;;18.87;;
16480;SDS011;44634;54.110;12.138;2022-09-28T04:37:31;28.93;;;19.63;;
16480;SDS011;44634;54.110;12.138;2022-09-28T04:39:59;28.60;;;20.40;;
16480;SDS011;44634;54.110;12.138;2022-09-28T04:42:27;28.93;;;20.63;;
16480;SDS011;44634;54.110;12.138;2022-09-28T04:44:54;26.83;;;20.20;;
16480;SDS011;44634;54.110;12.138;2022-09-28T04:47:24;30.03;;;20.33;;
16480;SDS011;44634;54.110;12.138;2022-09-28T04:49:51;26.17;;;20.23;;
16480;SDS011;44634;54.110;12.138;2022-09-28T04:52:19;28.30;;;20.70;;
16480;SDS011;44634;54.110;12.138;2022-09-28T04:54:48;28.03;;;20.70;;
16480;SDS011;44634;54.110;12.138;2022-09-28T04:57:16;28.60;;;19.83;;
16480;SDS011;44634;54.110;12.138;2022-09-28T04:59:44;28.63;;;20.47;;
16480;SDS011;44634;54.110;12.138;2022-09-28T05:02:12;28.50;;;20.13;;
16480;SDS011;44634;54.110;12.138;2022-09-28T05:04:40;27.50;;;20.10;;
16480;SDS011;44634;54.110;12.138;2022-09-28T05:07:08;29.07;;;20.47;;
16480;SDS011;44634;54.110;12.138;2022-09-28T05:09:36;25.70;;;19.17;;
16480;SDS011;44634;54.110;12.138;2022-09-28T05:12:05;25.07;;;19.10;;
16480;SDS011;44634;54.110;12.138;2022-09-28T05:14:34;27.00;;;19.97;;
16480;SDS011;44634;54.110;12.138;2022-09-28T05:17:02;27.93;;;20.60;;
16480;SDS011;44634;54.110;12.138;2022-09-28T05:19:30;24.83;;;20.30;;
16480;SDS011;44634;54.110;12.138;2022-09-28T05:22:00;27.77;;;20.30;;
16480;SDS011;44634;54.110;12.138;2022-09-28T05:24:29;28.43;;;20.53;;
16480;SDS011;44634;54.110;12.138;2022-09-28T05:26:57;28.47;;;20.40;;
16480;SDS011;44634;54.110;12.138;2022-09-28T05:29:26;26.63;;;19.70;;
16480;SDS011;44634;54.110;12.138;2022-09-28T05:31:57;27.53;;;19.50;;
16480;SDS011;44634;54.110;12.138;2022-09-28T05:34:27;26.20;;;20.20;;
16480;SDS011;44634;54.110;12.138;2022-09-28T05:36:54;27.47;;;20.43;;
16480;SDS011;44634;54.110;12.138;2022-09-28T05:39:22;28.00;;;20.37;;
16480;SDS011;44634;54.110;12.138;2022-09-28T05:41:50;26.90;;;20.70;;
16480;SDS011;44634;54.110;12.138;2022-09-28T05:44:17;29.07;;;21.03;;
16480;SDS011;44634;54.110;12.138;2022-09-28T05:46:47;30.07;;;20.77;;
16480;SDS011;44634;54.110;12.138;2022-09-28T05:49:14;27.57;;;20.17;;
16480;SDS011;44634;54.110;12.138;2022-09-28T05:51:42;30.53;;;21.87;;
16480;SDS011;44634;54.110;12.138;2022-09-28T05:54:10;29.63;;;21.07;;
16480;SDS011;44634;54.110;12.138;2022-09-28T05:56:38;29.87;;;21.07;;
16480;SDS011;44634;54.110;12.138;2022-09-28T05:59:05;29.60;;;21.37;;
16480;SDS011;44634;54.110;12.138;2022-09-28T06:01:33;26.57;;;20.43;;
16480;SDS011;44634;54.110;12.138;2022-09-28T06:04:02;28.37;;;19.07;;
16480;SDS011;44634;54.110;12.138;2022-09-28T06:06:30;29.80;;;19.80;;
16480;SDS011;44634;54.110;12.138;2022-09-28T06:08:58;29.13;;;20.80;;
16480;SDS011;44634;54.110;12.138;2022-09-28T06:11:25;28.77;;;20.47;;
16480;SDS011;44634;54.110;12.138;2022-09-28T06:13:53;29.00;;;21.13;;
16480;SDS011;44634;54.110;12.138;2022-09-28T06:16:21;27.53;;;20.00;;
16480;SDS011;44634;54.110;12.138;2022-09-28T06:18:49;27.57;;;19.77;;
16480;SDS011;44634;54.110;12.138;2022-09-28T06:21:18;26.37;;;20.23;;
16480;SDS011;44634;54.110;12.138;2022-09-28T06:23:46;28.20;;;19.73;;
16480;SDS011;44634;54.110;12.138;2022-09-28T06:26:16;27.17;;;19.17;;
16480;SDS011;44634;54.110;12.138;2022-09-28T06:28:44;24.60;;;19.27;;
16480;SDS011;44634;54.110;12.138;2022-09-28T06:31:11;25.40;;;19.00;;
16480;SDS011;44634;54.110;12.138;2022-09-28T06:33:40;25.40;;;18.93;;
16480;SDS011;44634;54.110;12.138;2022-09-28T06:36:08;22.10;;;17.07;;
16480;SDS011;44634;54.110;12.138;2022-09-28T06:38:37;22.83;;;17.10;;
16480;SDS011;44634;54.110;12.138;2022-09-28T06:41:05;21.40;;;16.53;;
16480;SDS011;44634;54.110;12.138;2022-09-28T06:43:32;22.33;;;16.57;;
16480;SDS011;44634;54.110;12.138;2022-09-28T06:46:01;19.53;;;15.37;;
16480;SDS011;44634;54.110;12.138;2022-09-28T06:48:29;19.50;;;15.20;;
16480;SDS011;44634;54.110;12.138;2022-09-28T06:50:58;19.47;;;15.43;;
16480;SDS011;44634;54.110;12.138;2022-09-28T06:53:27;20.00;;;15.27;;
16480;SDS011;44634;54.110;12.138;2022-09-28T06:55:57;20.17;;;16.30;;
16480;SDS011;44634;54.110;12.138;2022-09-28T06:58:25;16.93;;;14.97;;
16480;SDS011;44634;54.110;12.138;2022-09-28T07:00:55;20.57;;;15.43;;
16480;SDS011;44634;54.110;12.138;2022-09-28T07:03:24;16.70;;;14.30;;
16480;SDS011;44634;54.110;12.138;2022-09-28T07:05:53;16.73;;;14.43;;
16480;SDS011;44634;54.110;12.138;2022-09-28T07:08:22;16.80;;;14.47;;
16480;SDS011;44634;54.110;12.138;2022-09-28T07:10:52;16.97;;;13.47;;
16480;SDS011;44634;54.110;12.138;2022-09-28T07:13:23;15.90;;;14.03;;
16480;SDS011;44634;54.110;12.138;2022-09-28T07:16:13;14.97;;;12.90;;
16480;SDS011;44634;54.110;12.138;2022-09-28T07:18:41;13.83;;;12.37;;
16480;SDS011;44634;54.110;12.138;2022-09-28T07:21:08;15.27;;;12.70;;
16480;SDS011;44634;54.110;12.138;2022-09-28T07:23:53;14.10;;;12.13;;
16480;SDS011;44634;54.110;12.138;2022-09-28T07:26:21;12.83;;;11.43;;
16480;SDS011;44634;54.110;12.138;2022-09-28T07:28:51;13.67;;;11.47;;
16480;SDS011;44634;54.110;12.138;2022-09-28T07:31:19;13.40;;;12.00;;
16480;SDS011;44634;54.110;12.138;2022-09-28T07:33:48;12.63;;;11.43;;
16480;SDS011;44634;54.110;12.138;2022-09-28T07:36:16;13.13;;;11.83;;
16480;SDS011;44634;54.110;12.138;2022-09-28T07:38:46;13.47;;;11.67;;
16480;SDS011;44634;54.110;12.138;2022-09-28T07:41:14;14.33;;;12.27;;
16480;SDS011;44634;54.110;12.138;2022-09-28T07:43:46;12.53;;;11.23;;
16480;SDS011;44634;54.110;12.138;2022-09-28T07:46:16;13.43;;;11.00;;
16480;SDS011;44634;54.110;12.138;2022-09-28T07:48:45;11.97;;;10.57;;
16480;SDS011;44634;54.110;12.138;2022-09-28T07:51:14;12.13;;;10.93;;
16480;SDS011;44634;54.110;12.138;2022-09-28T07:53:44;10.77;;;9.87;;
16480;SDS011;44634;54.110;12.138;2022-09-28T07:56:13;10.57;;;9.50;;
16480;SDS011;44634;54.110;12.138;2022-09-28T07:58:42;10.23;;;9.33;;
16480;SDS011;44634;54.110;12.138;2022-09-28T08:01:10;10.63;;;9.53;;
16480;SDS011;44634;54.110;12.138;2022-09-28T08:03:41;10.80;;;9.70;;
16480;SDS011;44634;54.110;12.138;2022-09-28T08:06:13;10.27;;;9.27;;
16480;SDS011;44634;54.110;12.138;2022-09-28T08:08:43;10.60;;;9.60;;
16480;SDS011;44634;54.110;12.138;2022-09-28T08:11:11;10.50;;;9.50;;
16480;SDS011;44634;54.110;12.138;2022-09-28T08:13:39;9.87;;;8.93;;
16480;SDS011;44634;54.110;12.138;2022-09-28T08:16:07;10.53;;;9.53;;
16480;SDS011;44634;54.110;12.138;2022-09-28T08:18:37;10.13;;;9.13;;
16480;SDS011;44634;54.110;12.138;2022-09-28T08:21:06;10.23;;;8.73;;
16480;SDS011;44634;54.110;12.138;2022-09-28T08:23:51;9.73;;;8.83;;
16480;SDS011;44634;54.110;12.138;2022-09-28T08:26:19;11.43;;;9.37;;
16480;SDS011;44634;54.110;12.138;2022-09-28T08:28:47;12.27;;;9.00;;
16480;SDS011;44634;54.110;12.138;2022-09-28T08:31:15;9.60;;;8.60;;
16480;SDS011;44634;54.110;12.138;2022-09-28T08:33:43;7.20;;;6.60;;
16480;SDS011;44634;54.110;12.138;2022-09-28T08:36:12;7.43;;;6.60;;
16480;SDS011;44634;54.110;12.138;2022-09-28T08:38:40;7.63;;;7.00;;
16480;SDS011;44634;54.110;12.138;2022-09-28T08:41:11;7.27;;;6.67;;
16480;SDS011;44634;54.110;12.138;2022-09-28T08:43:51;7.30;;;6.70;;
16480;SDS011;44634;54.110;12.138;2022-09-28T08:46:30;6.17;;;5.67;;
16480;SDS011;44634;54.110;12.138;2022-09-28T08:49:05;7.90;;;6.10;;
16480;SDS011;44634;54.110;12.138;2022-09-28T08:51:54;5.90;;;5.40;;
16480;SDS011;44634;54.110;12.138;2022-09-28T08:54:29;6.37;;;5.90;;
16480;SDS011;44634;54.110;12.138;2022-09-28T08:57:05;6.50;;;5.90;;
16480;SDS011;44634;54.110;12.138;2022-09-28T08:59:47;6.73;;;5.60;;
16480;SDS011;44634;54.110;12.138;2022-09-28T09:02:19;5.97;;;5.40;;
16480;SDS011;44634;54.110;12.138;2022-09-28T09:04:50;6.93;;;6.23;;
16480;SDS011;44634;54.110;12.138;2022-09-28T09:07:28;5.80;;;5.30;;
16480;SDS011;44634;54.110;12.138;2022-09-28T09:10:13;5.70;;;5.10;;
16480;SDS011;44634;54.110;12.138;2022-09-28T09:12:59;4.83;;;4.43;;
16480;SDS011;44634;54.110;12.138;2022-09-28T09:15:39;5.07;;;4.73;;
16480;SDS011;44634;54.110;12.138;2022-09-28T09:18:19;6.20;;;5.70;;
16480;SDS011;44634;54.110;12.138;2022-09-28T09:20:54;4.80;;;4.40;;
16480;SDS011;44634;54.110;12.138;2022-09-28T09:23:27;5.57;;;5.10;;
16480;SDS011;44634;54.110;12.138;2022-09-28T09:26:03;5.87;;;5.30;;
16480;SDS011;44634;54.110;12.138;2022-09-28T09:28:46;5.00;;;4.70;;
16480;SDS011;44634;54.110;12.138;2022-09-28T09:31:28;4.60;;;4.30;;
16480;SDS011;44634;54.110;12.138;2022-09-28T09:34:12;5.00;;;4.70;;
16480;SDS011;44634;54.110;12.138;2022-09-28T09:37:02;4.33;;;4.10;;
16480;SDS011;44634;54.110;12.138;2022-09-28T09:39:43;4.80;;;4.50;;
16480;SDS011;44634;54.110;12.138;2022-09-28T09:42:21;4.43;;;4.10;;
16480;SDS011;44634;54.110;12.138;2022-09-28T09:45:05;4.10;;;3.83;;
16480;SDS011;44634;54.110;12.138;2022-09-28T09:47:55;3.50;;;3.20;;
16480;SDS011;44634;54.110;12.138;2022-09-28T09:50:29;3.63;;;3.40;;
16480;SDS011;44634;54.110;12.138;2022-09-28T09:53:02;3.60;;;3.40;;
16480;SDS011;44634;54.110;12.138;2022-09-28T09:55:39;3.20;;;3.10;;
16480;SDS011;44634;54.110;12.138;2022-09-28T09:58:11;3.20;;;3.00;;
16480;SDS011;44634;54.110;12.138;2022-09-28T10:00:44;3.27;;;3.07;;
16480;SDS011;44634;54.110;12.138;2022-09-28T10:03:16;3.00;;;2.80;;
16480;SDS011;44634;54.110;12.138;2022-09-28T10:05:51;3.70;;;3.60;;
16480;SDS011;44634;54.110;12.138;2022-09-28T10:08:22;3.40;;;3.30;;
16480;SDS011;44634;54.110;12.138;2022-09-28T10:10:55;3.83;;;3.43;;
16480;SDS011;44634;54.110;12.138;2022-09-28T10:13:32;3.80;;;3.43;;
16480;SDS011;44634;54.110;12.138;2022-09-28T10:16:00;3.20;;;2.90;;
16480;SDS011;44634;54.110;12.138;2022-09-28T10:18:29;3.03;;;2.83;;
16480;SDS011;44634;54.110;12.138;2022-09-28T10:20:56;3.77;;;2.87;;
16480;SDS011;44634;54.110;12.138;2022-09-28T10:23:25;3.10;;;3.00;;
16480;SDS011;44634;54.110;12.138;2022-09-28T10:25:58;2.60;;;2.40;;
16480;SDS011;44634;54.110;12.138;2022-09-28T10:28:32;2.40;;;2.30;;
16480;SDS011;44634;54.110;12.138;2022-09-28T10:34:00;2.00;;;1.90;;
16480;SDS011;44634;54.110;12.138;2022-09-28T10:36:30;3.43;;;2.20;;
16480;SDS011;44634;54.110;12.138;2022-09-28T10:39:03;2.13;;;2.13;;
16480;SDS011;44634;54.110;12.138;2022-09-28T10:41:33;2.30;;;2.20;;
16480;SDS011;44634;54.110;12.138;2022-09-28T10:44:15;2.90;;;2.70;;
16480;SDS011;44634;54.110;12.138;2022-09-28T10:46:44;3.13;;;2.93;;
16480;SDS011;44634;54.110;12.138;2022-09-28T10:49:24;2.40;;;2.30;;
16480;SDS011;44634;54.110;12.138;2022-09-28T10:51:52;2.40;;;2.30;;
16480;SDS011;44634;54.110;12.138;2022-09-28T10:54:22;2.63;;;2.53;;
16480;SDS011;44634;54.110;12.138;2022-09-28T10:56:53;2.50;;;2.40;;
16480;SDS011;44634;54.110;12.138;2022-09-28T11:02:12;2.40;;;2.30;;
16480;SDS011;44634;54.110;12.138;2022-09-28T11:04:50;2.10;;;2.00;;
16480;SDS011;44634;54.110;12.138;2022-09-28T11:07:21;2.73;;;2.17;;
16480;SDS011;44634;54.110;12.138;2022-09-28T11:09:51;2.57;;;2.37;;
16480;SDS011;44634;54.110;12.138;2022-09-28T11:12:23;2.73;;;2.63;;
16480;SDS011;44634;54.110;12.138;2022-09-28T11:14:56;2.50;;;2.40;;
16480;SDS011;44634;54.110;12.138;2022-09-28T11:17:28;2.33;;;2.23;;
16480;SDS011;44634;54.110;12.138;2022-09-28T11:19:58;2.97;;;2.77;;
16480;SDS011;44634;54.110;12.138;2022-09-28T11:22:29;3.33;;;3.10;;
16480;SDS011;44634;54.110;12.138;2022-09-28T11:25:18;3.13;;;2.63;;
16480;SDS011;44634;54.110;12.138;2022-09-28T11:28:00;2.77;;;2.67;;
16480;SDS011;44634;54.110;12.138;2022-09-28T11:30:31;2.90;;;2.80;;
16480;SDS011;44634;54.110;12.138;2022-09-28T11:33:01;2.87;;;2.77;;
16480;SDS011;44634;54.110;12.138;2022-09-28T11:35:35;3.20;;;2.70;;
16480;SDS011;44634;54.110;12.138;2022-09-28T11:38:22;3.00;;;2.80;;
16480;SDS011;44634;54.110;12.138;2022-09-28T11:41:02;2.63;;;2.43;;
16480;SDS011;44634;54.110;12.138;2022-09-28T11:43:57;2.80;;;2.70;;
16480;SDS011;44634;54.110;12.138;2022-09-28T11:46:43;2.67;;;2.43;;
16480;SDS011;44634;54.110;12.138;2022-09-28T11:49:24;2.60;;;2.50;;
16480;SDS011;44634;54.110;12.138;2022-09-28T11:51:58;2.20;;;2.20;;
16480;SDS011;44634;54.110;12.138;2022-09-28T11:54:31;2.30;;;2.20;;
16480;SDS011;44634;54.110;12.138;2022-09-28T11:57:08;3.50;;;2.40;;
16480;SDS011;44634;54.110;12.138;2022-09-28T11:59:44;3.23;;;2.77;;
16480;SDS011;44634;54.110;12.138;2022-09-28T12:02:21;2.97;;;2.80;;
16480;SDS011;44634;54.110;12.138;2022-09-28T12:04:53;2.70;;;2.50;;
16480;SDS011;44634;54.110;12.138;2022-09-28T12:07:24;2.50;;;2.40;;
16480;SDS011;44634;54.110;12.138;2022-09-28T12:09:57;3.03;;;2.87;;
16480;SDS011;44634;54.110;12.138;2022-09-28T12:12:31;3.53;;;2.80;;
16480;SDS011;44634;54.110;12.138;2022-09-28T12:15:04;3.50;;;3.20;;
16480;SDS011;44634;54.110;12.138;2022-09-28T12:17:41;5.97;;;5.57;;
16480;SDS011;44634;54.110;12.138;2022-09-28T12:20:15;10.07;;;9.07;;
16480;SDS011;44634;54.110;12.138;2022-09-28T12:22:53;11.13;;;10.03;;
16480;SDS011;44634;54.110;12.138;2022-09-28T12:25:28;11.17;;;9.97;;
16480;SDS011;44634;54.110;12.138;2022-09-28T12:28:04;11.63;;;10.07;;
16480;SDS011;44634;54.110;12.138;2022-09-28T12:30:36;10.97;;;9.87;;
16480;SDS011;44634;54.110;12.138;2022-09-28T12:33:08;8.07;;;7.27;;
16480;SDS011;44634;54.110;12.138;2022-09-28T12:35:42;8.20;;;7.43;;
16480;SDS011;44634;54.110;12.138;2022-09-28T12:38:24;6.33;;;5.83;;
16480;SDS011;44634;54.110;12.138;2022-09-28T12:41:06;6.47;;;5.80;;
16480;SDS011;44634;54.110;12.138;2022-09-28T12:43:49;8.53;;;7.73;;
16480;SDS011;44634;54.110;12.138;2022-09-28T12:46:31;9.90;;;8.90;;
16480;SDS011;44634;54.110;12.138;2022-09-28T12:52:18;9.63;;;8.63;;
16480;SDS011;44634;54.110;12.138;2022-09-28T12:57:47;11.23;;;9.90;;
16480;SDS011;44634;54.110;12.138;2022-09-28T13:00:23;10.20;;;9.27;;
16480;SDS011;44634;54.110;12.138;2022-09-28T13:06:02;10.60;;;9.33;;
16480;SDS011;44634;54.110;12.138;2022-09-28T13:08:43;12.13;;;8.60;;
16480;SDS011;44634;54.110;12.138;2022-09-28T13:11:25;8.77;;;7.97;;
16480;SDS011;44634;54.110;12.138;2022-09-28T13:14:03;9.40;;;8.40;;
16480;SDS011;44634;54.110;12.138;2022-09-28T13:16:48;8.33;;;7.47;;
16480;SDS011;44634;54.110;12.138;2022-09-28T13:19:31;8.37;;;7.40;;
16480;SDS011;44634;54.110;12.138;2022-09-28T13:22:12;11.07;;;9.20;;
16480;SDS011;44634;54.110;12.138;2022-09-28T13:24:49;10.97;;;8.73;;
16480;SDS011;44634;54.110;12.138;2022-09-28T13:27:25;8.30;;;7.47;;
16480;SDS011;44634;54.110;12.138;2022-09-28T13:29:58;12.93;;;10.77;;
16480;SDS011;44634;54.110;12.138;2022-09-28T13:32:29;8.73;;;7.83;;
16480;SDS011;44634;54.110;12.138;2022-09-28T13:35:00;8.07;;;7.30;;
16480;SDS011;44634;54.110;12.138;2022-09-28T13:37:28;8.47;;;7.63;;
16480;SDS011;44634;54.110;12.138;2022-09-28T13:39:56;7.77;;;7.07;;
16480;SDS011;44634;54.110;12.138;2022-09-28T13:42:35;13.03;;;11.43;;
16480;SDS011;44634;54.110;12.138;2022-09-28T13:45:31;8.87;;;7.97;;
16480;SDS011;44634;54.110;12.138;2022-09-28T13:48:22;18.90;;;15.63;;
16480;SDS011;44634;54.110;12.138;2022-09-28T13:51:08;9.50;;;8.60;;
16480;SDS011;44634;54.110;12.138;2022-09-28T13:54:04;9.00;;;7.80;;
16480;SDS011;44634;54.110;12.138;2022-09-28T13:56:43;8.87;;;7.97;;
16480;SDS011;44634;54.110;12.138;2022-09-28T13:59:21;7.80;;;7.00;;
16480;SDS011;44634;54.110;12.138;2022-09-28T14:01:52;7.50;;;6.60;;
16480;SDS011;44634;54.110;12.138;2022-09-28T14:04:51;8.13;;;7.07;;
16480;SDS011;44634;54.110;12.138;2022-09-28T14:07:23;23.77;;;19.77;;
16480;SDS011;44634;54.110;12.138;2022-09-28T14:10:09;11.80;;;10.60;;
16480;SDS011;44634;54.110;12.138;2022-09-28T14:12:44;10.37;;;8.33;;
16480;SDS011;44634;54.110;12.138;2022-09-28T14:18:09;8.87;;;7.47;;
16480;SDS011;44634;54.110;12.138;2022-09-28T14:20:47;7.10;;;6.43;;
16480;SDS011;44634;54.110;12.138;2022-09-28T14:23:33;6.80;;;6.20;;
16480;SDS011;44634;54.110;12.138;2022-09-28T14:29:22;6.10;;;5.60;;
16480;SDS011;44634;54.110;12.138;2022-09-28T14:31:56;8.77;;;7.97;;
16480;SDS011;44634;54.110;12.138;2022-09-28T14:34:31;6.83;;;6.33;;
16480;SDS011;44634;54.110;12.138;2022-09-28T14:37:02;5.73;;;5.23;;
16480;SDS011;44634;54.110;12.138;2022-09-28T14:40:01;6.67;;;5.90;;
16480;SDS011;44634;54.110;12.138;2022-09-28T14:43:18;6.70;;;6.03;;
16480;SDS011;44634;54.110;12.138;2022-09-28T14:48:53;7.13;;;6.57;;
16480;SDS011;44634;54.110;12.138;2022-09-28T14:54:28;8.33;;;7.63;;
16480;SDS011;44634;54.110;12.138;2022-09-28T14:57:15;15.70;;;14.13;;
16480;SDS011;44634;54.110;12.138;2022-09-28T14:59:44;8.20;;;7.47;;
16480;SDS011;44634;54.110;12.138;2022-09-28T15:02:14;7.10;;;6.50;;
16480;SDS011;44634;54.110;12.138;2022-09-28T15:04:47;8.07;;;6.77;;
16480;SDS011;44634;54.110;12.138;2022-09-28T15:07:19;8.20;;;7.00;;
16480;SDS011;44634;54.110;12.138;2022-09-28T15:09:49;7.77;;;6.97;;
16480;SDS011;44634;54.110;12.138;2022-09-28T15:12:20;8.07;;;7.27;;
16480;SDS011;44634;54.110;12.138;2022-09-28T15:14:52;7.77;;;6.83;;
16480;SDS011;44634;54.110;12.138;2022-09-28T15:17:24;8.17;;;7.47;;
16480;SDS011;44634;54.110;12.138;2022-09-28T15:20:01;5.07;;;4.63;;
16480;SDS011;44634;54.110;12.138;2022-09-28T15:22:50;4.83;;;4.53;;